Winchester, NH (03470)

3:23 AM EDT on October 31, 2014 (GMT -0400)
Near Sanddam | Change Station
CLOSE
Current Station
Personal Weather Station
Location: Troy, NH
Elevation: 1076 ft
Nearby Weather Stations

Elev 1076 ft 42.82 °N, 72.18 °W | Updated 12 minutes ago

Partly Cloudy
Partly Cloudy
33.4 °F
Feels Like 33 °F
N
0.0
Wind Variable Wind from North

Today
High -- | Low -- °F
--% Chance of Precip.
Yesterday
High -- | Low -- °F
Precip. -- in
7:22 AM 5:43 PM
First Quarter, 52% visible
Pressure 30.01 in
Visibility 7.0 miles
Clouds Few 4900 ft
Windchill 33 °F
Dew Point 31 °F
Humidity 92%
Rainfall 0.00 in
Snow Depth Not available.
UV 0 out of 12
Pollen .90 out of 12
Air Quality Not available.
Flu Activity Not available.
METAR KEEN 310715Z AUTO 00000KT 7SM FEW049 03/M01 A3001 RMK AO1

More Conditions Fewer Conditions

Pressure 30.01 in
Visibility 7.0 miles
Clouds Few 4900 ft
Windchill 33 °F
Dew Point 31 °F
Humidity 92%
Rainfall 0.00 in
Snow Depth Not available.
UV 0 out of 12
Pollen .90 out of 12
Air Quality Not available.
Flu Activity Not available.
METAR KEEN 310715Z AUTO 00000KT 7SM FEW049 03/M01 A3001 RMK AO1

More Conditions Fewer Conditions

10-Day Weather Forecast

Almanac

Astronomy

Oct. 31, 2014 Rise Set
Actual Time
Civil Twilight
Nautical Twilight
Astronomical Twilight
Moon
Length of Visible Light
Length of Day
Tomorrow will be .
, % of the Moon is Illuminated

Today's Extremes

State Highs State Lows

Community

WunderPhotos

Upload Photos

1,766,573 photos uploaded!

WunderBlogs® & News

Nearby

Air Quality

  Air Quality AQ Index Pollutant
Not available.

Snow Depth

Station Depth Elevation

Earthquake Activity

City Distance Mag. Time & Date
Minimum magnitude displayed is 2.5.

Coastal Water Temperatures

Place Temperature

Nearby Weather Stations